sensor_id;sensor_type;location;lat;lon;timestamp;P1;durP1;ratioP1;P2;durP2;ratioP2
52554;SDS011;38455;52.710;6.502;2023-07-31T00:02:14;5.57;;;2.65;;
52554;SDS011;38455;52.710;6.502;2023-07-31T00:04:40;4.55;;;2.33;;
52554;SDS011;38455;52.710;6.502;2023-07-31T00:07:05;4.05;;;2.50;;
52554;SDS011;38455;52.710;6.502;2023-07-31T00:09:32;6.53;;;2.47;;
52554;SDS011;38455;52.710;6.502;2023-07-31T00:11:58;2.97;;;2.00;;
52554;SDS011;38455;52.710;6.502;2023-07-31T00:14:24;4.50;;;1.83;;
52554;SDS011;38455;52.710;6.502;2023-07-31T00:16:49;3.58;;;2.40;;
52554;SDS011;38455;52.710;6.502;2023-07-31T00:19:15;3.85;;;2.40;;
52554;SDS011;38455;52.710;6.502;2023-07-31T00:21:41;4.00;;;2.28;;
52554;SDS011;38455;52.710;6.502;2023-07-31T00:24:06;3.15;;;1.90;;
52554;SDS011;38455;52.710;6.502;2023-07-31T00:26:32;5.10;;;2.30;;
52554;SDS011;38455;52.710;6.502;2023-07-31T00:28:58;4.07;;;2.00;;
52554;SDS011;38455;52.710;6.502;2023-07-31T00:31:23;3.47;;;2.45;;
52554;SDS011;38455;52.710;6.502;2023-07-31T00:33:49;3.20;;;1.90;;
52554;SDS011;38455;52.710;6.502;2023-07-31T00:36:15;5.28;;;2.60;;
52554;SDS011;38455;52.710;6.502;2023-07-31T00:38:40;4.70;;;1.95;;
52554;SDS011;38455;52.710;6.502;2023-07-31T00:41:06;4.90;;;1.80;;
52554;SDS011;38455;52.710;6.502;2023-07-31T00:43:32;4.20;;;2.00;;
52554;SDS011;38455;52.710;6.502;2023-07-31T00:45:57;2.88;;;1.60;;
52554;SDS011;38455;52.710;6.502;2023-07-31T00:48:23;3.00;;;1.80;;
52554;SDS011;38455;52.710;6.502;2023-07-31T00:50:49;3.67;;;2.38;;
52554;SDS011;38455;52.710;6.502;2023-07-31T00:53:15;3.45;;;1.75;;
52554;SDS011;38455;52.710;6.502;2023-07-31T00:55:41;4.47;;;2.20;;
52554;SDS011;38455;52.710;6.502;2023-07-31T00:58:07;2.83;;;1.73;;
52554;SDS011;38455;52.710;6.502;2023-07-31T01:00:33;3.03;;;1.70;;
52554;SDS011;38455;52.710;6.502;2023-07-31T01:02:59;4.22;;;1.65;;
52554;SDS011;38455;52.710;6.502;2023-07-31T01:05:29;5.10;;;1.63;;
52554;SDS011;38455;52.710;6.502;2023-07-31T01:08:09;3.67;;;1.88;;
52554;SDS011;38455;52.710;6.502;2023-07-31T01:10:49;4.72;;;1.60;;
52554;SDS011;38455;52.710;6.502;2023-07-31T01:13:20;1.55;;;1.05;;
52554;SDS011;38455;52.710;6.502;2023-07-31T01:15:46;3.05;;;1.55;;
52554;SDS011;38455;52.710;6.502;2023-07-31T01:18:12;3.72;;;1.30;;
52554;SDS011;38455;52.710;6.502;2023-07-31T01:20:38;3.20;;;1.45;;
52554;SDS011;38455;52.710;6.502;2023-07-31T01:25:56;5.88;;;1.48;;
52554;SDS011;38455;52.710;6.502;2023-07-31T01:31:25;2.75;;;1.35;;
52554;SDS011;38455;52.710;6.502;2023-07-31T01:33:53;2.90;;;0.93;;
52554;SDS011;38455;52.710;6.502;2023-07-31T01:36:21;2.17;;;1.30;;
52554;SDS011;38455;52.710;6.502;2023-07-31T01:38:47;1.95;;;1.40;;
52554;SDS011;38455;52.710;6.502;2023-07-31T01:41:12;1.60;;;1.00;;
52554;SDS011;38455;52.710;6.502;2023-07-31T01:43:38;2.70;;;1.60;;
52554;SDS011;38455;52.710;6.502;2023-07-31T01:46:04;2.22;;;1.30;;
52554;SDS011;38455;52.710;6.502;2023-07-31T01:48:30;2.85;;;1.33;;
52554;SDS011;38455;52.710;6.502;2023-07-31T01:51:00;2.20;;;1.20;;
52554;SDS011;38455;52.710;6.502;2023-07-31T01:53:27;1.67;;;1.00;;
52554;SDS011;38455;52.710;6.502;2023-07-31T01:55:52;1.50;;;0.98;;
52554;SDS011;38455;52.710;6.502;2023-07-31T01:58:18;2.80;;;1.30;;
52554;SDS011;38455;52.710;6.502;2023-07-31T02:00:44;2.33;;;1.30;;
52554;SDS011;38455;52.710;6.502;2023-07-31T02:03:09;1.60;;;1.00;;
52554;SDS011;38455;52.710;6.502;2023-07-31T02:05:35;1.92;;;1.15;;
52554;SDS011;38455;52.710;6.502;2023-07-31T02:08:01;1.20;;;1.08;;
52554;SDS011;38455;52.710;6.502;2023-07-31T02:10:26;1.38;;;1.10;;
52554;SDS011;38455;52.710;6.502;2023-07-31T02:12:52;2.75;;;1.17;;
52554;SDS011;38455;52.710;6.502;2023-07-31T02:15:18;2.30;;;1.38;;
52554;SDS011;38455;52.710;6.502;2023-07-31T02:17:43;1.65;;;1.45;;
52554;SDS011;38455;52.710;6.502;2023-07-31T02:20:09;1.48;;;1.17;;
52554;SDS011;38455;52.710;6.502;2023-07-31T02:22:35;1.65;;;1.15;;
52554;SDS011;38455;52.710;6.502;2023-07-31T02:25:01;3.83;;;1.20;;
52554;SDS011;38455;52.710;6.502;2023-07-31T02:27:26;1.90;;;1.15;;
52554;SDS011;38455;52.710;6.502;2023-07-31T02:29:52;3.65;;;1.45;;
52554;SDS011;38455;52.710;6.502;2023-07-31T02:32:19;1.35;;;0.98;;
52554;SDS011;38455;52.710;6.502;2023-07-31T02:34:45;1.98;;;1.23;;
52554;SDS011;38455;52.710;6.502;2023-07-31T02:37:10;1.95;;;1.20;;
52554;SDS011;38455;52.710;6.502;2023-07-31T02:39:36;4.95;;;1.35;;
52554;SDS011;38455;52.710;6.502;2023-07-31T02:42:01;1.50;;;1.10;;
52554;SDS011;38455;52.710;6.502;2023-07-31T02:44:27;2.05;;;1.40;;
52554;SDS011;38455;52.710;6.502;2023-07-31T02:46:53;2.92;;;1.80;;
52554;SDS011;38455;52.710;6.502;2023-07-31T02:49:19;2.08;;;1.30;;
52554;SDS011;38455;52.710;6.502;2023-07-31T02:51:44;2.92;;;1.45;;
52554;SDS011;38455;52.710;6.502;2023-07-31T02:54:10;2.85;;;1.63;;
52554;SDS011;38455;52.710;6.502;2023-07-31T02:56:36;4.32;;;1.35;;
52554;SDS011;38455;52.710;6.502;2023-07-31T02:59:01;2.67;;;1.42;;
52554;SDS011;38455;52.710;6.502;2023-07-31T03:01:27;5.32;;;1.95;;
52554;SDS011;38455;52.710;6.502;2023-07-31T03:03:53;3.92;;;1.65;;
52554;SDS011;38455;52.710;6.502;2023-07-31T03:06:18;1.92;;;1.20;;
52554;SDS011;38455;52.710;6.502;2023-07-31T03:08:44;2.65;;;1.80;;
52554;SDS011;38455;52.710;6.502;2023-07-31T03:11:10;3.95;;;1.65;;
52554;SDS011;38455;52.710;6.502;2023-07-31T03:13:35;3.17;;;1.80;;
52554;SDS011;38455;52.710;6.502;2023-07-31T03:16:01;2.53;;;1.80;;
52554;SDS011;38455;52.710;6.502;2023-07-31T03:18:27;2.83;;;1.63;;
52554;SDS011;38455;52.710;6.502;2023-07-31T03:20:52;3.33;;;1.48;;
52554;SDS011;38455;52.710;6.502;2023-07-31T03:23:18;2.35;;;1.45;;
52554;SDS011;38455;52.710;6.502;2023-07-31T03:25:59;5.25;;;1.23;;
52554;SDS011;38455;52.710;6.502;2023-07-31T03:28:28;2.85;;;1.63;;
52554;SDS011;38455;52.710;6.502;2023-07-31T03:30:54;1.60;;;1.10;;
52554;SDS011;38455;52.710;6.502;2023-07-31T03:33:20;2.67;;;1.58;;
52554;SDS011;38455;52.710;6.502;2023-07-31T03:35:45;3.63;;;1.50;;
52554;SDS011;38455;52.710;6.502;2023-07-31T03:38:11;3.58;;;1.52;;
52554;SDS011;38455;52.710;6.502;2023-07-31T03:40:37;3.83;;;1.50;;
52554;SDS011;38455;52.710;6.502;2023-07-31T03:43:03;2.80;;;1.42;;
52554;SDS011;38455;52.710;6.502;2023-07-31T03:45:30;3.47;;;1.48;;
52554;SDS011;38455;52.710;6.502;2023-07-31T03:47:55;2.97;;;1.17;;
52554;SDS011;38455;52.710;6.502;2023-07-31T03:50:21;2.85;;;1.35;;
52554;SDS011;38455;52.710;6.502;2023-07-31T03:52:47;2.15;;;1.27;;
52554;SDS011;38455;52.710;6.502;2023-07-31T03:55:12;3.67;;;1.58;;
52554;SDS011;38455;52.710;6.502;2023-07-31T03:57:38;3.65;;;1.30;;
52554;SDS011;38455;52.710;6.502;2023-07-31T04:00:04;2.92;;;1.60;;
52554;SDS011;38455;52.710;6.502;2023-07-31T04:02:30;4.28;;;1.95;;
52554;SDS011;38455;52.710;6.502;2023-07-31T04:04:56;3.65;;;1.60;;
52554;SDS011;38455;52.710;6.502;2023-07-31T04:07:21;3.63;;;1.90;;
52554;SDS011;38455;52.710;6.502;2023-07-31T04:09:47;5.25;;;1.70;;
52554;SDS011;38455;52.710;6.502;2023-07-31T04:12:13;5.90;;;1.50;;
52554;SDS011;38455;52.710;6.502;2023-07-31T04:14:38;3.00;;;1.30;;
52554;SDS011;38455;52.710;6.502;2023-07-31T04:17:04;2.50;;;1.40;;
52554;SDS011;38455;52.710;6.502;2023-07-31T04:19:30;4.50;;;2.15;;
52554;SDS011;38455;52.710;6.502;2023-07-31T04:21:55;7.18;;;2.30;;
52554;SDS011;38455;52.710;6.502;2023-07-31T04:24:21;9.48;;;3.70;;
52554;SDS011;38455;52.710;6.502;2023-07-31T04:26:50;13.23;;;3.92;;
52554;SDS011;38455;52.710;6.502;2023-07-31T04:29:17;15.43;;;3.92;;
52554;SDS011;38455;52.710;6.502;2023-07-31T04:31:42;10.18;;;4.63;;
52554;SDS011;38455;52.710;6.502;2023-07-31T04:34:08;14.68;;;5.35;;
52554;SDS011;38455;52.710;6.502;2023-07-31T04:36:34;26.75;;;7.10;;
52554;SDS011;38455;52.710;6.502;2023-07-31T04:39:00;23.77;;;6.72;;
52554;SDS011;38455;52.710;6.502;2023-07-31T04:41:26;22.33;;;7.50;;
52554;SDS011;38455;52.710;6.502;2023-07-31T04:43:53;27.00;;;7.18;;
52554;SDS011;38455;52.710;6.502;2023-07-31T04:46:18;28.00;;;8.25;;
52554;SDS011;38455;52.710;6.502;2023-07-31T04:48:44;30.48;;;7.65;;
52554;SDS011;38455;52.710;6.502;2023-07-31T04:51:10;26.02;;;9.02;;
52554;SDS011;38455;52.710;6.502;2023-07-31T04:53:35;23.83;;;8.27;;
52554;SDS011;38455;52.710;6.502;2023-07-31T04:56:01;26.88;;;8.18;;
52554;SDS011;38455;52.710;6.502;2023-07-31T04:58:27;26.67;;;8.18;;
52554;SDS011;38455;52.710;6.502;2023-07-31T05:00:53;28.98;;;8.75;;
52554;SDS011;38455;52.710;6.502;2023-07-31T05:03:18;32.42;;;8.68;;
52554;SDS011;38455;52.710;6.502;2023-07-31T05:05:44;28.17;;;9.48;;
52554;SDS011;38455;52.710;6.502;2023-07-31T05:08:10;33.28;;;8.52;;
52554;SDS011;38455;52.710;6.502;2023-07-31T05:10:35;28.52;;;9.00;;
52554;SDS011;38455;52.710;6.502;2023-07-31T05:13:01;25.67;;;8.25;;
52554;SDS011;38455;52.710;6.502;2023-07-31T05:15:27;32.22;;;9.10;;
52554;SDS011;38455;52.710;6.502;2023-07-31T05:17:53;27.58;;;8.98;;
52554;SDS011;38455;52.710;6.502;2023-07-31T05:20:19;30.42;;;8.52;;
52554;SDS011;38455;52.710;6.502;2023-07-31T05:22:45;33.72;;;8.98;;
52554;SDS011;38455;52.710;6.502;2023-07-31T05:25:10;33.20;;;9.68;;
52554;SDS011;38455;52.710;6.502;2023-07-31T05:27:36;28.65;;;9.05;;
52554;SDS011;38455;52.710;6.502;2023-07-31T05:30:02;28.60;;;8.82;;
52554;SDS011;38455;52.710;6.502;2023-07-31T05:32:28;29.90;;;8.52;;
52554;SDS011;38455;52.710;6.502;2023-07-31T05:34:53;31.15;;;9.23;;
52554;SDS011;38455;52.710;6.502;2023-07-31T05:37:19;35.22;;;8.88;;
52554;SDS011;38455;52.710;6.502;2023-07-31T05:39:45;60.38;;;11.95;;
52554;SDS011;38455;52.710;6.502;2023-07-31T05:42:11;28.20;;;8.18;;
52554;SDS011;38455;52.710;6.502;2023-07-31T05:44:37;35.13;;;8.50;;
52554;SDS011;38455;52.710;6.502;2023-07-31T05:47:02;29.73;;;9.02;;
52554;SDS011;38455;52.710;6.502;2023-07-31T05:49:28;36.22;;;9.27;;
52554;SDS011;38455;52.710;6.502;2023-07-31T05:51:54;37.83;;;9.27;;
52554;SDS011;38455;52.710;6.502;2023-07-31T05:54:19;23.25;;;8.00;;
52554;SDS011;38455;52.710;6.502;2023-07-31T05:56:45;26.98;;;9.10;;
52554;SDS011;38455;52.710;6.502;2023-07-31T05:59:11;26.00;;;9.00;;
52554;SDS011;38455;52.710;6.502;2023-07-31T06:01:37;33.45;;;9.35;;
52554;SDS011;38455;52.710;6.502;2023-07-31T06:04:03;25.17;;;9.73;;
52554;SDS011;38455;52.710;6.502;2023-07-31T06:06:29;31.15;;;9.63;;
52554;SDS011;38455;52.710;6.502;2023-07-31T06:08:55;33.38;;;9.45;;
52554;SDS011;38455;52.710;6.502;2023-07-31T06:11:21;26.15;;;9.07;;
52554;SDS011;38455;52.710;6.502;2023-07-31T06:13:46;22.55;;;8.25;;
52554;SDS011;38455;52.710;6.502;2023-07-31T06:16:14;28.85;;;8.52;;
52554;SDS011;38455;52.710;6.502;2023-07-31T06:18:40;28.90;;;8.88;;
52554;SDS011;38455;52.710;6.502;2023-07-31T06:21:06;33.67;;;9.48;;
52554;SDS011;38455;52.710;6.502;2023-07-31T06:23:32;26.45;;;8.90;;
52554;SDS011;38455;52.710;6.502;2023-07-31T06:25:58;23.17;;;9.43;;
52554;SDS011;38455;52.710;6.502;2023-07-31T06:28:27;26.63;;;9.48;;
52554;SDS011;38455;52.710;6.502;2023-07-31T06:30:54;26.30;;;10.05;;
52554;SDS011;38455;52.710;6.502;2023-07-31T06:33:20;27.33;;;10.15;;
52554;SDS011;38455;52.710;6.502;2023-07-31T06:35:45;31.30;;;9.88;;
52554;SDS011;38455;52.710;6.502;2023-07-31T06:38:11;29.33;;;10.18;;
52554;SDS011;38455;52.710;6.502;2023-07-31T06:40:37;26.63;;;10.55;;
52554;SDS011;38455;52.710;6.502;2023-07-31T06:43:03;30.17;;;10.63;;
52554;SDS011;38455;52.710;6.502;2023-07-31T06:45:36;29.60;;;9.57;;
52554;SDS011;38455;52.710;6.502;2023-07-31T06:48:02;28.55;;;10.57;;
52554;SDS011;38455;52.710;6.502;2023-07-31T06:50:29;24.58;;;8.55;;
52554;SDS011;38455;52.710;6.502;2023-07-31T06:52:55;22.92;;;9.45;;
52554;SDS011;38455;52.710;6.502;2023-07-31T06:55:21;23.10;;;8.82;;
52554;SDS011;38455;52.710;6.502;2023-07-31T06:57:48;20.92;;;8.02;;
52554;SDS011;38455;52.710;6.502;2023-07-31T07:00:15;21.52;;;7.40;;
52554;SDS011;38455;52.710;6.502;2023-07-31T07:02:42;20.20;;;7.45;;
52554;SDS011;38455;52.710;6.502;2023-07-31T07:05:08;13.32;;;6.18;;
52554;SDS011;38455;52.710;6.502;2023-07-31T07:07:34;20.90;;;6.78;;
52554;SDS011;38455;52.710;6.502;2023-07-31T07:10:01;15.55;;;5.35;;
52554;SDS011;38455;52.710;6.502;2023-07-31T07:12:31;11.05;;;5.18;;
52554;SDS011;38455;52.710;6.502;2023-07-31T07:14:58;12.70;;;4.95;;
52554;SDS011;38455;52.710;6.502;2023-07-31T07:17:25;13.68;;;4.68;;
52554;SDS011;38455;52.710;6.502;2023-07-31T07:19:51;11.05;;;4.90;;
52554;SDS011;38455;52.710;6.502;2023-07-31T07:22:17;9.77;;;4.35;;
52554;SDS011;38455;52.710;6.502;2023-07-31T07:24:43;10.57;;;4.40;;
52554;SDS011;38455;52.710;6.502;2023-07-31T07:27:09;12.48;;;4.28;;
52554;SDS011;38455;52.710;6.502;2023-07-31T07:29:34;13.70;;;5.07;;
52554;SDS011;38455;52.710;6.502;2023-07-31T07:32:00;8.60;;;3.67;;
52554;SDS011;38455;52.710;6.502;2023-07-31T07:34:27;11.32;;;4.07;;
52554;SDS011;38455;52.710;6.502;2023-07-31T07:36:53;13.82;;;4.43;;
52554;SDS011;38455;52.710;6.502;2023-07-31T07:39:19;7.47;;;4.15;;
52554;SDS011;38455;52.710;6.502;2023-07-31T07:41:45;9.93;;;4.00;;
52554;SDS011;38455;52.710;6.502;2023-07-31T07:44:11;10.27;;;4.18;;
52554;SDS011;38455;52.710;6.502;2023-07-31T07:46:38;11.10;;;4.45;;
52554;SDS011;38455;52.710;6.502;2023-07-31T07:49:04;7.40;;;3.65;;
52554;SDS011;38455;52.710;6.502;2023-07-31T07:51:30;10.23;;;4.03;;
52554;SDS011;38455;52.710;6.502;2023-07-31T07:53:57;8.98;;;3.70;;
52554;SDS011;38455;52.710;6.502;2023-07-31T07:56:23;6.20;;;3.42;;
52554;SDS011;38455;52.710;6.502;2023-07-31T07:58:50;7.93;;;3.47;;
52554;SDS011;38455;52.710;6.502;2023-07-31T08:01:16;7.78;;;3.72;;
52554;SDS011;38455;52.710;6.502;2023-07-31T08:03:42;7.95;;;3.50;;
52554;SDS011;38455;52.710;6.502;2023-07-31T08:06:08;7.20;;;3.47;;
52554;SDS011;38455;52.710;6.502;2023-07-31T08:08:37;5.97;;;3.67;;
52554;SDS011;38455;52.710;6.502;2023-07-31T08:11:03;7.90;;;3.38;;
52554;SDS011;38455;52.710;6.502;2023-07-31T08:13:30;5.75;;;3.55;;
52554;SDS011;38455;52.710;6.502;2023-07-31T08:15:56;7.80;;;3.28;;
52554;SDS011;38455;52.710;6.502;2023-07-31T08:18:21;6.53;;;3.15;;
52554;SDS011;38455;52.710;6.502;2023-07-31T08:20:47;6.22;;;3.40;;
52554;SDS011;38455;52.710;6.502;2023-07-31T08:23:13;8.00;;;2.90;;
52554;SDS011;38455;52.710;6.502;2023-07-31T08:25:38;8.45;;;3.67;;
52554;SDS011;38455;52.710;6.502;2023-07-31T08:28:04;5.95;;;2.90;;
52554;SDS011;38455;52.710;6.502;2023-07-31T08:30:30;6.32;;;2.90;;
52554;SDS011;38455;52.710;6.502;2023-07-31T08:32:56;4.18;;;2.75;;
52554;SDS011;38455;52.710;6.502;2023-07-31T08:35:22;6.30;;;2.85;;
52554;SDS011;38455;52.710;6.502;2023-07-31T08:37:49;5.97;;;2.33;;
52554;SDS011;38455;52.710;6.502;2023-07-31T08:40:15;4.72;;;2.38;;
52554;SDS011;38455;52.710;6.502;2023-07-31T08:42:44;4.50;;;2.50;;
52554;SDS011;38455;52.710;6.502;2023-07-31T08:45:14;4.45;;;2.60;;
52554;SDS011;38455;52.710;6.502;2023-07-31T08:47:50;5.63;;;2.28;;
52554;SDS011;38455;52.710;6.502;2023-07-31T08:52:43;4.53;;;2.38;;
52554;SDS011;38455;52.710;6.502;2023-07-31T08:55:10;4.70;;;2.08;;
52554;SDS011;38455;52.710;6.502;2023-07-31T08:57:37;4.50;;;2.10;;
52554;SDS011;38455;52.710;6.502;2023-07-31T09:00:04;4.28;;;2.20;;
52554;SDS011;38455;52.710;6.502;2023-07-31T09:05:08;4.03;;;2.20;;
52554;SDS011;38455;52.710;6.502;2023-07-31T09:07:35;5.13;;;2.20;;
52554;SDS011;38455;52.710;6.502;2023-07-31T09:10:02;3.22;;;1.70;;
52554;SDS011;38455;52.710;6.502;2023-07-31T09:12:29;2.97;;;1.63;;
52554;SDS011;38455;52.710;6.502;2023-07-31T09:14:56;3.75;;;1.85;;
52554;SDS011;38455;52.710;6.502;2023-07-31T09:17:35;2.90;;;1.50;;
52554;SDS011;38455;52.710;6.502;2023-07-31T09:20:22;3.35;;;1.58;;
52554;SDS011;38455;52.710;6.502;2023-07-31T09:22:48;2.42;;;1.20;;
52554;SDS011;38455;52.710;6.502;2023-07-31T09:25:21;2.47;;;1.50;;
52554;SDS011;38455;52.710;6.502;2023-07-31T09:27:53;2.58;;;1.30;;
52554;SDS011;38455;52.710;6.502;2023-07-31T09:30:29;2.72;;;1.50;;
52554;SDS011;38455;52.710;6.502;2023-07-31T09:33:05;2.45;;;1.25;;
52554;SDS011;38455;52.710;6.502;2023-07-31T09:35:35;2.15;;;1.08;;
52554;SDS011;38455;52.710;6.502;2023-07-31T09:38:03;1.95;;;1.30;;
52554;SDS011;38455;52.710;6.502;2023-07-31T09:40:35;2.88;;;1.10;;
52554;SDS011;38455;52.710;6.502;2023-07-31T09:43:05;1.73;;;1.20;;
52554;SDS011;38455;52.710;6.502;2023-07-31T09:45:36;2.03;;;1.35;;
52554;SDS011;38455;52.710;6.502;2023-07-31T09:48:09;4.40;;;1.30;;
52554;SDS011;38455;52.710;6.502;2023-07-31T09:50:46;1.45;;;1.25;;
52554;SDS011;38455;52.710;6.502;2023-07-31T09:53:13;2.65;;;1.20;;
52554;SDS011;38455;52.710;6.502;2023-07-31T09:55:40;1.55;;;1.30;;
52554;SDS011;38455;52.710;6.502;2023-07-31T09:58:07;2.22;;;1.42;;
52554;SDS011;38455;52.710;6.502;2023-07-31T10:00:37;1.33;;;1.00;;
52554;SDS011;38455;52.710;6.502;2023-07-31T10:03:07;3.03;;;1.42;;
52554;SDS011;38455;52.710;6.502;2023-07-31T10:05:35;2.20;;;1.35;;
52554;SDS011;38455;52.710;6.502;2023-07-31T10:08:13;2.88;;;1.15;;
52554;SDS011;38455;52.710;6.502;2023-07-31T10:10:41;1.90;;;1.40;;
52554;SDS011;38455;52.710;6.502;2023-07-31T10:13:08;2.13;;;1.35;;
52554;SDS011;38455;52.710;6.502;2023-07-31T10:15:34;2.00;;;1.48;;
52554;SDS011;38455;52.710;6.502;2023-07-31T10:18:01;1.80;;;1.42;;
52554;SDS011;38455;52.710;6.502;2023-07-31T10:20:27;1.67;;;1.35;;
52554;SDS011;38455;52.710;6.502;2023-07-31T10:22:55;1.55;;;1.25;;
52554;SDS011;38455;52.710;6.502;2023-07-31T10:25:22;1.90;;;1.50;;
52554;SDS011;38455;52.710;6.502;2023-07-31T10:27:48;3.25;;;1.30;;
52554;SDS011;38455;52.710;6.502;2023-07-31T10:30:15;1.95;;;1.30;;
52554;SDS011;38455;52.710;6.502;2023-07-31T10:32:43;1.58;;;1.23;;
52554;SDS011;38455;52.710;6.502;2023-07-31T10:35:10;1.27;;;1.15;;
52554;SDS011;38455;52.710;6.502;2023-07-31T10:40:04;1.42;;;0.95;;
52554;SDS011;38455;52.710;6.502;2023-07-31T10:42:31;1.17;;;0.80;;
52554;SDS011;38455;52.710;6.502;2023-07-31T10:45:05;3.05;;;0.82;;
52554;SDS011;38455;52.710;6.502;2023-07-31T10:47:42;1.42;;;1.00;;
52554;SDS011;38455;52.710;6.502;2023-07-31T10:50:16;1.50;;;0.98;;
52554;SDS011;38455;52.710;6.502;2023-07-31T10:52:56;1.33;;;0.85;;
52554;SDS011;38455;52.710;6.502;2023-07-31T10:58:13;1.33;;;1.10;;
52554;SDS011;38455;52.710;6.502;2023-07-31T11:00:43;1.42;;;0.90;;
52554;SDS011;38455;52.710;6.502;2023-07-31T11:08:16;2.47;;;1.10;;
52554;SDS011;38455;52.710;6.502;2023-07-31T11:10:50;1.42;;;1.02;;
52554;SDS011;38455;52.710;6.502;2023-07-31T11:13:29;2.90;;;0.98;;
52554;SDS011;38455;52.710;6.502;2023-07-31T11:15:59;1.02;;;0.95;;
52554;SDS011;38455;52.710;6.502;2023-07-31T11:18:25;1.08;;;0.88;;
52554;SDS011;38455;52.710;6.502;2023-07-31T11:20:52;1.35;;;0.82;;
52554;SDS011;38455;52.710;6.502;2023-07-31T11:23:18;2.67;;;0.80;;
52554;SDS011;38455;52.710;6.502;2023-07-31T11:25:45;1.27;;;0.65;;
52554;SDS011;38455;52.710;6.502;2023-07-31T11:28:13;0.55;;;0.40;;
52554;SDS011;38455;52.710;6.502;2023-07-31T11:30:40;1.00;;;0.60;;
52554;SDS011;38455;52.710;6.502;2023-07-31T11:33:08;2.05;;;0.55;;
52554;SDS011;38455;52.710;6.502;2023-07-31T11:35:45;0.63;;;0.55;;
52554;SDS011;38455;52.710;6.502;2023-07-31T11:38:34;1.50;;;0.50;;
52554;SDS011;38455;52.710;6.502;2023-07-31T11:43:27;2.83;;;0.70;;
52554;SDS011;38455;52.710;6.502;2023-07-31T11:45:57;2.35;;;0.47;;
52554;SDS011;38455;52.710;6.502;2023-07-31T11:48:28;1.02;;;0.38;;
52554;SDS011;38455;52.710;6.502;2023-07-31T11:50:57;0.32;;;0.30;;
52554;SDS011;38455;52.710;6.502;2023-07-31T11:53:36;1.42;;;0.47;;
52554;SDS011;38455;52.710;6.502;2023-07-31T11:56:10;2.47;;;0.82;;
52554;SDS011;38455;52.710;6.502;2023-07-31T11:58:38;1.40;;;0.80;;
52554;SDS011;38455;52.710;6.502;2023-07-31T12:01:05;2.75;;;0.80;;
52554;SDS011;38455;52.710;6.502;2023-07-31T12:03:32;3.00;;;0.75;;
52554;SDS011;38455;52.710;6.502;2023-07-31T12:05:59;2.42;;;1.00;;
52554;SDS011;38455;52.710;6.502;2023-07-31T12:08:25;2.13;;;1.00;;
52554;SDS011;38455;52.710;6.502;2023-07-31T12:10:51;2.65;;;0.85;;
52554;SDS011;38455;52.710;6.502;2023-07-31T12:13:21;6.88;;;1.15;;
52554;SDS011;38455;52.710;6.502;2023-07-31T12:15:48;2.10;;;1.15;;
52554;SDS011;38455;52.710;6.502;2023-07-31T12:18:21;1.80;;;0.90;;
52554;SDS011;38455;52.710;6.502;2023-07-31T12:20:48;3.13;;;1.60;;
52554;SDS011;38455;52.710;6.502;2023-07-31T12:23:21;4.50;;;1.83;;
52554;SDS011;38455;52.710;6.502;2023-07-31T12:26:06;4.43;;;1.30;;
52554;SDS011;38455;52.710;6.502;2023-07-31T12:28:41;3.15;;;1.40;;
52554;SDS011;38455;52.710;6.502;2023-07-31T12:31:15;4.25;;;1.40;;
52554;SDS011;38455;52.710;6.502;2023-07-31T12:33:46;4.43;;;1.40;;
52554;SDS011;38455;52.710;6.502;2023-07-31T12:36:21;6.43;;;1.95;;
52554;SDS011;38455;52.710;6.502;2023-07-31T12:38:52;4.78;;;2.17;;
52554;SDS011;38455;52.710;6.502;2023-07-31T12:41:18;5.43;;;2.15;;
52554;SDS011;38455;52.710;6.502;2023-07-31T12:43:44;9.85;;;2.33;;
52554;SDS011;38455;52.710;6.502;2023-07-31T12:46:10;8.05;;;2.10;;
52554;SDS011;38455;52.710;6.502;2023-07-31T12:48:37;7.07;;;2.10;;
52554;SDS011;38455;52.710;6.502;2023-07-31T12:51:04;5.68;;;1.95;;
52554;SDS011;38455;52.710;6.502;2023-07-31T12:53:30;4.50;;;1.85;;
52554;SDS011;38455;52.710;6.502;2023-07-31T12:55:56;3.17;;;1.75;;
52554;SDS011;38455;52.710;6.502;2023-07-31T12:58:22;3.47;;;1.65;;
52554;SDS011;38455;52.710;6.502;2023-07-31T13:00:48;3.15;;;1.55;;
52554;SDS011;38455;52.710;6.502;2023-07-31T13:03:13;3.13;;;1.90;;
52554;SDS011;38455;52.710;6.502;2023-07-31T13:05:39;5.15;;;2.20;;
52554;SDS011;38455;52.710;6.502;2023-07-31T13:08:05;5.65;;;2.55;;
52554;SDS011;38455;52.710;6.502;2023-07-31T13:10:31;4.43;;;2.30;;
52554;SDS011;38455;52.710;6.502;2023-07-31T13:12:56;4.18;;;2.30;;
52554;SDS011;38455;52.710;6.502;2023-07-31T13:15:22;6.15;;;2.15;;
52554;SDS011;38455;52.710;6.502;2023-07-31T13:17:48;3.47;;;1.83;;
52554;SDS011;38455;52.710;6.502;2023-07-31T13:20:13;3.03;;;1.67;;
52554;SDS011;38455;52.710;6.502;2023-07-31T13:22:39;3.75;;;1.90;;
52554;SDS011;38455;52.710;6.502;2023-07-31T13:25:05;4.63;;;1.90;;
52554;SDS011;38455;52.710;6.502;2023-07-31T13:27:31;4.88;;;1.63;;
52554;SDS011;38455;52.710;6.502;2023-07-31T13:29:57;3.53;;;1.90;;
52554;SDS011;38455;52.710;6.502;2023-07-31T13:32:23;4.20;;;1.92;;
52554;SDS011;38455;52.710;6.502;2023-07-31T13:34:49;4.65;;;1.90;;
52554;SDS011;38455;52.710;6.502;2023-07-31T13:37:14;5.53;;;2.20;;
52554;SDS011;38455;52.710;6.502;2023-07-31T13:39:41;5.00;;;2.88;;
52554;SDS011;38455;52.710;6.502;2023-07-31T13:42:07;6.45;;;2.40;;
52554;SDS011;38455;52.710;6.502;2023-07-31T13:44:34;4.35;;;2.05;;
52554;SDS011;38455;52.710;6.502;2023-07-31T13:47:00;5.38;;;2.70;;
52554;SDS011;38455;52.710;6.502;2023-07-31T13:49:26;3.75;;;2.20;;
52554;SDS011;38455;52.710;6.502;2023-07-31T13:51:52;4.05;;;2.90;;
52554;SDS011;38455;52.710;6.502;2023-07-31T13:54:18;4.13;;;2.40;;
52554;SDS011;38455;52.710;6.502;2023-07-31T13:56:44;5.95;;;2.53;;
52554;SDS011;38455;52.710;6.502;2023-07-31T13:59:10;4.38;;;2.30;;
52554;SDS011;38455;52.710;6.502;2023-07-31T14:01:36;4.78;;;1.77;;
52554;SDS011;38455;52.710;6.502;2023-07-31T14:04:01;4.35;;;1.70;;
52554;SDS011;38455;52.710;6.502;2023-07-31T14:06:27;4.63;;;2.13;;
52554;SDS011;38455;52.710;6.502;2023-07-31T14:08:53;7.88;;;1.80;;
52554;SDS011;38455;52.710;6.502;2023-07-31T14:11:19;6.88;;;2.22;;
52554;SDS011;38455;52.710;6.502;2023-07-31T14:13:44;5.20;;;2.33;;
52554;SDS011;38455;52.710;6.502;2023-07-31T14:16:10;6.18;;;2.58;;
52554;SDS011;38455;52.710;6.502;2023-07-31T14:18:36;6.25;;;2.53;;
52554;SDS011;38455;52.710;6.502;2023-07-31T14:21:01;6.82;;;2.78;;
52554;SDS011;38455;52.710;6.502;2023-07-31T14:23:27;7.18;;;3.08;;
52554;SDS011;38455;52.710;6.502;2023-07-31T14:25:53;6.47;;;2.60;;
52554;SDS011;38455;52.710;6.502;2023-07-31T14:28:18;4.80;;;2.42;;
52554;SDS011;38455;52.710;6.502;2023-07-31T14:30:44;3.65;;;2.13;;
52554;SDS011;38455;52.710;6.502;2023-07-31T14:33:10;7.68;;;2.90;;
52554;SDS011;38455;52.710;6.502;2023-07-31T14:35:35;7.88;;;2.55;;
52554;SDS011;38455;52.710;6.502;2023-07-31T14:38:01;5.40;;;2.60;;
52554;SDS011;38455;52.710;6.502;2023-07-31T14:40:27;5.65;;;2.40;;
52554;SDS011;38455;52.710;6.502;2023-07-31T14:42:52;5.63;;;2.63;;
52554;SDS011;38455;52.710;6.502;2023-07-31T14:45:18;6.72;;;2.13;;
52554;SDS011;38455;52.710;6.502;2023-07-31T14:47:44;6.05;;;2.60;;
52554;SDS011;38455;52.710;6.502;2023-07-31T14:50:09;6.15;;;2.05;;
52554;SDS011;38455;52.710;6.502;2023-07-31T14:52:35;3.80;;;2.17;;
52554;SDS011;38455;52.710;6.502;2023-07-31T14:55:01;5.85;;;2.25;;
52554;SDS011;38455;52.710;6.502;2023-07-31T14:57:27;4.90;;;2.05;;
52554;SDS011;38455;52.710;6.502;2023-07-31T14:59:52;6.60;;;2.30;;
52554;SDS011;38455;52.710;6.502;2023-07-31T15:02:18;5.72;;;2.40;;
52554;SDS011;38455;52.710;6.502;2023-07-31T15:04:44;7.15;;;2.88;;
52554;SDS011;38455;52.710;6.502;2023-07-31T15:07:10;5.68;;;2.72;;
52554;SDS011;38455;52.710;6.502;2023-07-31T15:09:35;4.30;;;2.42;;